sensor_id;sensor_type;location;lat;lon;timestamp;pressure;altitude;pressure_sealevel;temperature;humidity
60373;BME280;46216;52.220;5.134;2023-02-19T00:00:30;101933.50;;;10.20;100.00
60373;BME280;46216;52.220;5.134;2023-02-19T00:02:55;101928.91;;;10.22;100.00
60373;BME280;46216;52.220;5.134;2023-02-19T00:05:22;101925.34;;;10.23;100.00
60373;BME280;46216;52.220;5.134;2023-02-19T00:07:47;101931.44;;;10.25;100.00
60373;BME280;46216;52.220;5.134;2023-02-19T00:10:12;101939.50;;;10.24;100.00
60373;BME280;46216;52.220;5.134;2023-02-19T00:12:38;101936.75;;;10.25;100.00
60373;BME280;46216;52.220;5.134;2023-02-19T00:15:03;101940.53;;;10.21;100.00
60373;BME280;46216;52.220;5.134;2023-02-19T00:17:30;101936.91;;;10.22;100.00
60373;BME280;46216;52.220;5.134;2023-02-19T00:19:55;101939.66;;;10.21;100.00
60373;BME280;46216;52.220;5.134;2023-02-19T00:22:21;101935.03;;;10.24;100.00
60373;BME280;46216;52.220;5.134;2023-02-19T00:24:47;101945.94;;;10.19;100.00
60373;BME280;46216;52.220;5.134;2023-02-19T00:27:12;101942.44;;;10.19;100.00
60373;BME280;46216;52.220;5.134;2023-02-19T00:29:38;101941.47;;;10.20;100.00
60373;BME280;46216;52.220;5.134;2023-02-19T00:32:03;101938.97;;;10.17;100.00
60373;BME280;46216;52.220;5.134;2023-02-19T00:34:29;101929.81;;;10.23;100.00
60373;BME280;46216;52.220;5.134;2023-02-19T00:36:54;101946.72;;;10.22;100.00
60373;BME280;46216;52.220;5.134;2023-02-19T00:39:19;101947.56;;;10.22;100.00
60373;BME280;46216;52.220;5.134;2023-02-19T00:41:45;101940.47;;;10.23;100.00
60373;BME280;46216;52.220;5.134;2023-02-19T00:44:11;101953.94;;;10.19;100.00
60373;BME280;46216;52.220;5.134;2023-02-19T00:46:42;101959.03;;;10.24;100.00
60373;BME280;46216;52.220;5.134;2023-02-19T00:49:12;101952.59;;;10.28;100.00
60373;BME280;46216;52.220;5.134;2023-02-19T00:51:39;101951.03;;;10.24;100.00
60373;BME280;46216;52.220;5.134;2023-02-19T00:54:05;101948.34;;;10.24;100.00
60373;BME280;46216;52.220;5.134;2023-02-19T00:56:31;101952.75;;;10.25;100.00
60373;BME280;46216;52.220;5.134;2023-02-19T00:58:56;101959.75;;;10.28;100.00
60373;BME280;46216;52.220;5.134;2023-02-19T01:01:21;101967.97;;;10.23;100.00
60373;BME280;46216;52.220;5.134;2023-02-19T01:03:47;101964.22;;;10.27;100.00
60373;BME280;46216;52.220;5.134;2023-02-19T01:06:15;101967.97;;;10.23;100.00
60373;BME280;46216;52.220;5.134;2023-02-19T01:08:41;101950.66;;;10.14;100.00
60373;BME280;46216;52.220;5.134;2023-02-19T01:11:08;101969.06;;;10.19;100.00
60373;BME280;46216;52.220;5.134;2023-02-19T01:13:33;101959.28;;;10.19;100.00
60373;BME280;46216;52.220;5.134;2023-02-19T01:16:19;101962.16;;;10.15;100.00
60373;BME280;46216;52.220;5.134;2023-02-19T01:18:45;101970.31;;;10.12;100.00
60373;BME280;46216;52.220;5.134;2023-02-19T01:21:14;101972.97;;;10.12;100.00
60373;BME280;46216;52.220;5.134;2023-02-19T01:23:40;101972.13;;;10.11;100.00
60373;BME280;46216;52.220;5.134;2023-02-19T01:26:08;101973.53;;;10.01;100.00
60373;BME280;46216;52.220;5.134;2023-02-19T01:28:35;101980.53;;;10.04;100.00
60373;BME280;46216;52.220;5.134;2023-02-19T01:31:02;101976.00;;;10.06;100.00
60373;BME280;46216;52.220;5.134;2023-02-19T01:33:28;101979.66;;;10.03;100.00
60373;BME280;46216;52.220;5.134;2023-02-19T01:35:53;101981.63;;;10.00;100.00
60373;BME280;46216;52.220;5.134;2023-02-19T01:38:18;101989.63;;;10.00;100.00
60373;BME280;46216;52.220;5.134;2023-02-19T01:40:44;101986.16;;;9.98;100.00
60373;BME280;46216;52.220;5.134;2023-02-19T01:43:15;101976.47;;;9.97;100.00
60373;BME280;46216;52.220;5.134;2023-02-19T01:45:44;101975.50;;;9.98;100.00
60373;BME280;46216;52.220;5.134;2023-02-19T01:48:26;101989.13;;;9.91;100.00
60373;BME280;46216;52.220;5.134;2023-02-19T01:50:59;101998.06;;;9.90;100.00
60373;BME280;46216;52.220;5.134;2023-02-19T01:53:28;101993.69;;;9.89;100.00
60373;BME280;46216;52.220;5.134;2023-02-19T01:55:57;101995.41;;;9.90;100.00
60373;BME280;46216;52.220;5.134;2023-02-19T01:58:25;101989.22;;;9.90;100.00
60373;BME280;46216;52.220;5.134;2023-02-19T02:00:52;101989.38;;;9.87;100.00
60373;BME280;46216;52.220;5.134;2023-02-19T02:03:18;101985.72;;;9.89;100.00
60373;BME280;46216;52.220;5.134;2023-02-19T02:06:14;101989.22;;;9.90;100.00
60373;BME280;46216;52.220;5.134;2023-02-19T02:08:41;101994.56;;;9.90;100.00
60373;BME280;46216;52.220;5.134;2023-02-19T02:11:26;101997.63;;;9.82;100.00
60373;BME280;46216;52.220;5.134;2023-02-19T02:13:52;101995.56;;;9.87;100.00
60373;BME280;46216;52.220;5.134;2023-02-19T02:16:33;101996.50;;;9.86;100.00
60373;BME280;46216;52.220;5.134;2023-02-19T02:22:00;101996.41;;;9.88;100.00
60373;BME280;46216;52.220;5.134;2023-02-19T02:24:54;101997.13;;;9.91;100.00
60373;BME280;46216;52.220;5.134;2023-02-19T02:27:33;101994.72;;;9.87;100.00
60373;BME280;46216;52.220;5.134;2023-02-19T02:35:32;102001.03;;;9.84;100.00
60373;BME280;46216;52.220;5.134;2023-02-19T02:38:02;102002.28;;;9.94;100.00
60373;BME280;46216;52.220;5.134;2023-02-19T02:40:29;102001.44;;;9.94;100.00
60373;BME280;46216;52.220;5.134;2023-02-19T02:42:59;102007.63;;;9.94;100.00
60373;BME280;46216;52.220;5.134;2023-02-19T02:45:27;102009.38;;;9.95;100.00
60373;BME280;46216;52.220;5.134;2023-02-19T02:50:49;102007.78;;;9.91;100.00
60373;BME280;46216;52.220;5.134;2023-02-19T02:53:20;102015.00;;;9.89;100.00
60373;BME280;46216;52.220;5.134;2023-02-19T02:56:06;102008.56;;;9.93;100.00
60373;BME280;46216;52.220;5.134;2023-02-19T02:58:33;102004.19;;;9.92;100.00
60373;BME280;46216;52.220;5.134;2023-02-19T03:01:17;102011.22;;;9.93;100.00
60373;BME280;46216;52.220;5.134;2023-02-19T03:04:07;102015.06;;;9.88;100.00
60373;BME280;46216;52.220;5.134;2023-02-19T03:06:35;102012.72;;;9.82;100.00
60373;BME280;46216;52.220;5.134;2023-02-19T03:09:17;102019.78;;;9.83;100.00
60373;BME280;46216;52.220;5.134;2023-02-19T03:11:45;102025.00;;;9.84;100.00
60373;BME280;46216;52.220;5.134;2023-02-19T03:14:42;102035.75;;;9.83;100.00
60373;BME280;46216;52.220;5.134;2023-02-19T03:17:32;102023.13;;;9.86;100.00
60373;BME280;46216;52.220;5.134;2023-02-19T03:20:21;102026.97;;;9.81;100.00
60373;BME280;46216;52.220;5.134;2023-02-19T03:22:49;102034.59;;;9.88;100.00
60373;BME280;46216;52.220;5.134;2023-02-19T03:25:35;102025.81;;;9.86;100.00
60373;BME280;46216;52.220;5.134;2023-02-19T03:28:22;102037.47;;;9.84;100.00
60373;BME280;46216;52.220;5.134;2023-02-19T03:31:16;102036.59;;;9.83;100.00
60373;BME280;46216;52.220;5.134;2023-02-19T03:33:45;102035.66;;;9.84;100.00
60373;BME280;46216;52.220;5.134;2023-02-19T03:36:12;102035.19;;;9.76;100.00
60373;BME280;46216;52.220;5.134;2023-02-19T03:38:55;102041.91;;;9.66;100.00
60373;BME280;46216;52.220;5.134;2023-02-19T03:44:22;102033.78;;;9.69;100.00
60373;BME280;46216;52.220;5.134;2023-02-19T03:52:04;102049.19;;;9.62;100.00
60373;BME280;46216;52.220;5.134;2023-02-19T04:00:12;102067.72;;;9.64;100.00
60373;BME280;46216;52.220;5.134;2023-02-19T04:02:49;102071.19;;;9.66;100.00
60373;BME280;46216;52.220;5.134;2023-02-19T04:05:20;102067.59;;;9.67;100.00
60373;BME280;46216;52.220;5.134;2023-02-19T04:07:49;102069.25;;;9.69;100.00
60373;BME280;46216;52.220;5.134;2023-02-19T04:10:17;102074.47;;;9.71;100.00
60373;BME280;46216;52.220;5.134;2023-02-19T04:12:48;102073.84;;;9.66;100.00
60373;BME280;46216;52.220;5.134;2023-02-19T04:15:19;102085.28;;;9.68;100.00
60373;BME280;46216;52.220;5.134;2023-02-19T04:18:25;102080.84;;;9.68;100.00
60373;BME280;46216;52.220;5.134;2023-02-19T04:20:44;102080.91;;;9.67;100.00
60373;BME280;46216;52.220;5.134;2023-02-19T04:23:11;102089.75;;;9.67;100.00
60373;BME280;46216;52.220;5.134;2023-02-19T04:25:38;102088.72;;;9.70;100.00
60373;BME280;46216;52.220;5.134;2023-02-19T04:28:07;102090.91;;;9.62;100.00
60373;BME280;46216;52.220;5.134;2023-02-19T04:30:33;102093.50;;;9.63;100.00
60373;BME280;46216;52.220;5.134;2023-02-19T04:32:59;102094.06;;;9.70;100.00
60373;BME280;46216;52.220;5.134;2023-02-19T04:35:24;102101.09;;;9.71;100.00
60373;BME280;46216;52.220;5.134;2023-02-19T04:37:49;102110.03;;;9.70;100.00
60373;BME280;46216;52.220;5.134;2023-02-19T04:40:15;102115.50;;;9.67;100.00
60373;BME280;46216;52.220;5.134;2023-02-19T04:42:40;102110.84;;;9.72;100.00
60373;BME280;46216;52.220;5.134;2023-02-19T04:45:06;102124.28;;;9.69;100.00
60373;BME280;46216;52.220;5.134;2023-02-19T04:47:31;102122.41;;;9.71;100.00
60373;BME280;46216;52.220;5.134;2023-02-19T04:49:57;102118.81;;;9.72;100.00
60373;BME280;46216;52.220;5.134;2023-02-19T04:52:22;102128.75;;;9.68;100.00
60373;BME280;46216;52.220;5.134;2023-02-19T04:54:47;102132.41;;;9.66;100.00
60373;BME280;46216;52.220;5.134;2023-02-19T04:57:13;102138.22;;;9.74;100.00
60373;BME280;46216;52.220;5.134;2023-02-19T04:59:38;102141.97;;;9.70;100.00
60373;BME280;46216;52.220;5.134;2023-02-19T05:02:03;102141.84;;;9.73;100.00
60373;BME280;46216;52.220;5.134;2023-02-19T05:04:29;102142.91;;;9.69;100.00
60373;BME280;46216;52.220;5.134;2023-02-19T05:06:54;102147.16;;;9.73;100.00
60373;BME280;46216;52.220;5.134;2023-02-19T05:09:19;102157.31;;;9.65;100.00
60373;BME280;46216;52.220;5.134;2023-02-19T05:11:46;102155.84;;;9.58;100.00
60373;BME280;46216;52.220;5.134;2023-02-19T05:14:11;102156.50;;;9.63;100.00
60373;BME280;46216;52.220;5.134;2023-02-19T05:16:36;102157.66;;;9.57;100.00
60373;BME280;46216;52.220;5.134;2023-02-19T05:19:02;102165.31;;;9.65;100.00
60373;BME280;46216;52.220;5.134;2023-02-19T05:21:28;102161.84;;;9.63;100.00
60373;BME280;46216;52.220;5.134;2023-02-19T05:23:53;102177.81;;;9.63;100.00
60373;BME280;46216;52.220;5.134;2023-02-19T05:26:21;102167.16;;;9.63;100.00
60373;BME280;46216;52.220;5.134;2023-02-19T05:28:49;102178.66;;;9.63;100.00
60373;BME280;46216;52.220;5.134;2023-02-19T05:31:15;102168.88;;;9.64;100.00
60373;BME280;46216;52.220;5.134;2023-02-19T05:33:41;102173.28;;;9.65;100.00
60373;BME280;46216;52.220;5.134;2023-02-19T05:36:10;102171.41;;;9.67;100.00
60373;BME280;46216;52.220;5.134;2023-02-19T05:38:36;102176.25;;;9.59;100.00
60373;BME280;46216;52.220;5.134;2023-02-19T05:41:15;102174.66;;;9.55;100.00
60373;BME280;46216;52.220;5.134;2023-02-19T05:43:41;102170.78;;;9.62;100.00
60373;BME280;46216;52.220;5.134;2023-02-19T05:46:10;102165.59;;;9.59;100.00
60373;BME280;46216;52.220;5.134;2023-02-19T05:48:36;102176.16;;;9.60;100.00
60373;BME280;46216;52.220;5.134;2023-02-19T05:51:06;102175.00;;;9.66;100.00
60373;BME280;46216;52.220;5.134;2023-02-19T05:53:32;102173.72;;;9.56;100.00
60373;BME280;46216;52.220;5.134;2023-02-19T05:55:58;102183.03;;;9.64;100.00
60373;BME280;46216;52.220;5.134;2023-02-19T05:58:24;102184.28;;;9.57;100.00
60373;BME280;46216;52.220;5.134;2023-02-19T06:00:49;102193.44;;;9.52;100.00
60373;BME280;46216;52.220;5.134;2023-02-19T06:03:14;102192.50;;;9.53;100.00
60373;BME280;46216;52.220;5.134;2023-02-19T06:05:40;102197.66;;;9.56;100.00
60373;BME280;46216;52.220;5.134;2023-02-19T06:08:05;102201.84;;;9.42;100.00
60373;BME280;46216;52.220;5.134;2023-02-19T06:10:30;102208.88;;;9.43;100.00
60373;BME280;46216;52.220;5.134;2023-02-19T06:12:56;102209.00;;;9.40;100.00
60373;BME280;46216;52.220;5.134;2023-02-19T06:15:21;102224.78;;;9.45;100.00
60373;BME280;46216;52.220;5.134;2023-02-19T06:17:47;102225.88;;;9.41;100.00
60373;BME280;46216;52.220;5.134;2023-02-19T06:20:13;102223.41;;;9.36;100.00
60373;BME280;46216;52.220;5.134;2023-02-19T06:22:38;102228.22;;;9.28;100.00
60373;BME280;46216;52.220;5.134;2023-02-19T06:25:04;102243.22;;;9.29;100.00
60373;BME280;46216;52.220;5.134;2023-02-19T06:27:32;102250.28;;;9.30;100.00
60373;BME280;46216;52.220;5.134;2023-02-19T06:29:57;102234.88;;;9.18;100.00
60373;BME280;46216;52.220;5.134;2023-02-19T06:32:22;102247.75;;;9.27;100.00
60373;BME280;46216;52.220;5.134;2023-02-19T06:34:48;102245.09;;;9.27;100.00
60373;BME280;46216;52.220;5.134;2023-02-19T06:37:13;102245.09;;;9.27;100.00
60373;BME280;46216;52.220;5.134;2023-02-19T06:39:38;102244.22;;;9.27;100.00
60373;BME280;46216;52.220;5.134;2023-02-19T06:42:04;102241.78;;;9.22;100.00
60373;BME280;46216;52.220;5.134;2023-02-19T06:44:29;102259.19;;;9.29;100.00
60373;BME280;46216;52.220;5.134;2023-02-19T06:46:54;102251.69;;;9.18;100.00
60373;BME280;46216;52.220;5.134;2023-02-19T06:49:20;102259.59;;;9.20;100.00
60373;BME280;46216;52.220;5.134;2023-02-19T06:51:46;102268.38;;;9.22;100.00
60373;BME280;46216;52.220;5.134;2023-02-19T06:54:11;102269.97;;;9.26;100.00
60373;BME280;46216;52.220;5.134;2023-02-19T06:56:38;102266.72;;;9.19;100.00
60373;BME280;46216;52.220;5.134;2023-02-19T06:59:14;102271.97;;;9.21;100.00
60373;BME280;46216;52.220;5.134;2023-02-19T07:01:43;102278.28;;;9.18;100.00
60373;BME280;46216;52.220;5.134;2023-02-19T07:04:08;102288.84;;;9.20;100.00
60373;BME280;46216;52.220;5.134;2023-02-19T07:06:34;102286.19;;;9.20;100.00
60373;BME280;46216;52.220;5.134;2023-02-19T07:09:01;102291.34;;;9.24;100.00
60373;BME280;46216;52.220;5.134;2023-02-19T07:11:29;102292.25;;;9.23;100.00
60373;BME280;46216;52.220;5.134;2023-02-19T07:13:56;102301.75;;;9.29;100.00
60373;BME280;46216;52.220;5.134;2023-02-19T07:16:22;102301.72;;;9.31;100.00
60373;BME280;46216;52.220;5.134;2023-02-19T07:18:48;102307.28;;;9.24;100.00
60373;BME280;46216;52.220;5.134;2023-02-19T07:21:15;102310.69;;;9.28;100.00
60373;BME280;46216;52.220;5.134;2023-02-19T07:23:41;102317.97;;;9.23;100.00
60373;BME280;46216;52.220;5.134;2023-02-19T07:26:12;102315.88;;;9.31;100.00
60373;BME280;46216;52.220;5.134;2023-02-19T07:28:41;102330.09;;;9.30;100.00
60373;BME280;46216;52.220;5.134;2023-02-19T07:31:07;102321.19;;;9.31;100.00
60373;BME280;46216;52.220;5.134;2023-02-19T07:33:33;102332.81;;;9.29;100.00
60373;BME280;46216;52.220;5.134;2023-02-19T07:35:58;102342.47;;;9.31;100.00
60373;BME280;46216;52.220;5.134;2023-02-19T07:38:24;102332.75;;;9.30;100.00
60373;BME280;46216;52.220;5.134;2023-02-19T07:40:53;102339.81;;;9.31;100.00
60373;BME280;46216;52.220;5.134;2023-02-19T07:43:19;102334.19;;;9.17;100.00
60373;BME280;46216;52.220;5.134;2023-02-19T07:45:45;102342.53;;;9.30;100.00
60373;BME280;46216;52.220;5.134;2023-02-19T07:48:10;102345.06;;;9.33;100.00
60373;BME280;46216;52.220;5.134;2023-02-19T07:50:36;102345.06;;;9.33;100.00
60373;BME280;46216;52.220;5.134;2023-02-19T07:53:01;102351.50;;;9.27;100.00
60373;BME280;46216;52.220;5.134;2023-02-19T07:55:26;102364.63;;;9.32;100.00
60373;BME280;46216;52.220;5.134;2023-02-19T07:57:52;102364.28;;;9.19;100.00
60373;BME280;46216;52.220;5.134;2023-02-19T08:00:17;102367.78;;;9.19;100.00
60373;BME280;46216;52.220;5.134;2023-02-19T08:02:44;102374.91;;;9.19;100.00
60373;BME280;46216;52.220;5.134;2023-02-19T08:05:33;102368.84;;;9.15;100.00
60373;BME280;46216;52.220;5.134;2023-02-19T08:08:00;102364.53;;;9.13;100.00
60373;BME280;46216;52.220;5.134;2023-02-19T08:10:26;102376.75;;;9.17;100.00
60373;BME280;46216;52.220;5.134;2023-02-19T08:13:11;102370.59;;;9.16;100.00
60373;BME280;46216;52.220;5.134;2023-02-19T08:16:07;102387.41;;;9.17;100.00
60373;BME280;46216;52.220;5.134;2023-02-19T08:18:33;102390.00;;;9.18;100.00
60373;BME280;46216;52.220;5.134;2023-02-19T08:20:59;102399.66;;;9.21;100.00
60373;BME280;46216;52.220;5.134;2023-02-19T08:23:25;102398.81;;;9.20;100.00
60373;BME280;46216;52.220;5.134;2023-02-19T08:25:52;102409.56;;;9.17;100.00
60373;BME280;46216;52.220;5.134;2023-02-19T08:28:18;102406.84;;;9.19;100.00
60373;BME280;46216;52.220;5.134;2023-02-19T08:30:45;102396.44;;;9.13;100.00
60373;BME280;46216;52.220;5.134;2023-02-19T08:33:13;102420.81;;;9.24;100.00
60373;BME280;46216;52.220;5.134;2023-02-19T08:35:38;102425.09;;;9.28;100.00
60373;BME280;46216;52.220;5.134;2023-02-19T08:38:05;102430.41;;;9.28;100.00
60373;BME280;46216;52.220;5.134;2023-02-19T08:40:31;102425.94;;;9.29;100.00
60373;BME280;46216;52.220;5.134;2023-02-19T08:43:05;102439.84;;;9.35;100.00
60373;BME280;46216;52.220;5.134;2023-02-19T08:45:31;102432.66;;;9.37;100.00
60373;BME280;46216;52.220;5.134;2023-02-19T08:47:57;102424.50;;;9.42;100.00
60373;BME280;46216;52.220;5.134;2023-02-19T08:50:23;102416.56;;;9.40;100.00
60373;BME280;46216;52.220;5.134;2023-02-19T08:52:48;102423.63;;;9.41;100.00
60373;BME280;46216;52.220;5.134;2023-02-19T08:55:13;102434.28;;;9.41;100.00
60373;BME280;46216;52.220;5.134;2023-02-19T08:57:39;102429.69;;;9.45;100.00
60373;BME280;46216;52.220;5.134;2023-02-19T09:00:05;102430.56;;;9.45;100.00
60373;BME280;46216;52.220;5.134;2023-02-19T09:02:31;102430.69;;;9.42;100.00
60373;BME280;46216;52.220;5.134;2023-02-19T09:04:57;102437.00;;;9.40;100.00
60373;BME280;46216;52.220;5.134;2023-02-19T09:07:22;102429.56;;;9.48;100.00
60373;BME280;46216;52.220;5.134;2023-02-19T09:09:47;102432.41;;;9.43;100.00
60373;BME280;46216;52.220;5.134;2023-02-19T09:12:13;102447.59;;;9.41;100.00
60373;BME280;46216;52.220;5.134;2023-02-19T09:14:39;102452.09;;;9.39;100.00
60373;BME280;46216;52.220;5.134;2023-02-19T09:17:05;102447.59;;;9.41;100.00
60373;BME280;46216;52.220;5.134;2023-02-19T09:19:32;102453.66;;;9.45;100.00
60373;BME280;46216;52.220;5.134;2023-02-19T09:21:58;102450.78;;;9.50;100.00
60373;BME280;46216;52.220;5.134;2023-02-19T09:24:23;102460.47;;;9.51;100.00
60373;BME280;46216;52.220;5.134;2023-02-19T09:26:50;102468.78;;;9.43;100.00
60373;BME280;46216;52.220;5.134;2023-02-19T09:29:16;102484.34;;;9.32;100.00
60373;BME280;46216;52.220;5.134;2023-02-19T09:31:42;102501.78;;;9.39;100.00
60373;BME280;46216;52.220;5.134;2023-02-19T09:34:07;102501.84;;;9.37;100.00
60373;BME280;46216;52.220;5.134;2023-02-19T09:36:33;102511.50;;;9.40;100.00
60373;BME280;46216;52.220;5.134;2023-02-19T09:38:59;102502.59;;;9.41;100.00
60373;BME280;46216;52.220;5.134;2023-02-19T09:41:42;102511.69;;;9.35;100.00
60373;BME280;46216;52.220;5.134;2023-02-19T09:44:12;102525.00;;;9.35;100.00
60373;BME280;46216;52.220;5.134;2023-02-19T09:46:45;102516.94;;;9.37;100.00
60373;BME280;46216;52.220;5.134;2023-02-19T09:49:21;102524.69;;;9.43;100.00
60373;BME280;46216;52.220;5.134;2023-02-19T09:51:53;102538.06;;;9.41;100.00
60373;BME280;46216;52.220;5.134;2023-02-19T09:54:22;102536.44;;;9.37;100.00
60373;BME280;46216;52.220;5.134;2023-02-19T09:56:48;102549.22;;;9.06;100.00
60373;BME280;46216;52.220;5.134;2023-02-19T09:59:23;102543.31;;;9.21;100.00
60373;BME280;46216;52.220;5.134;2023-02-19T10:01:56;102562.84;;;9.20;100.00
60373;BME280;46216;52.220;5.134;2023-02-19T10:04:23;102570.81;;;9.20;100.00
60373;BME280;46216;52.220;5.134;2023-02-19T10:06:50;102562.91;;;9.18;100.00
60373;BME280;46216;52.220;5.134;2023-02-19T10:09:22;102568.06;;;9.23;100.00
60373;BME280;46216;52.220;5.134;2023-02-19T10:11:53;102576.03;;;9.23;100.00
60373;BME280;46216;52.220;5.134;2023-02-19T10:14:29;102584.84;;;9.25;100.00
60373;BME280;46216;52.220;5.134;2023-02-19T10:17:00;102594.66;;;9.23;100.00
60373;BME280;46216;52.220;5.134;2023-02-19T10:19:26;102607.06;;;9.24;100.00
60373;BME280;46216;52.220;5.134;2023-02-19T10:21:51;102600.22;;;9.17;100.00
60373;BME280;46216;52.220;5.134;2023-02-19T10:24:24;102604.97;;;9.09;100.00
60373;BME280;46216;52.220;5.134;2023-02-19T10:26:51;102613.06;;;9.06;100.00
60373;BME280;46216;52.220;5.134;2023-02-19T10:29:16;102620.47;;;8.97;100.00
60373;BME280;46216;52.220;5.134;2023-02-19T10:31:43;102632.94;;;8.95;100.00
60373;BME280;46216;52.220;5.134;2023-02-19T10:34:17;102626.88;;;8.92;100.00
60373;BME280;46216;52.220;5.134;2023-02-19T10:36:46;102623.25;;;8.94;100.00
60373;BME280;46216;52.220;5.134;2023-02-19T10:41:50;102637.81;;;8.84;100.00
60373;BME280;46216;52.220;5.134;2023-02-19T10:44:26;102628.09;;;8.83;100.00
60373;BME280;46216;52.220;5.134;2023-02-19T10:46:55;102621.00;;;8.84;100.00
60373;BME280;46216;52.220;5.134;2023-02-19T10:49:37;102623.56;;;8.85;100.00
60373;BME280;46216;52.220;5.134;2023-02-19T10:52:32;102623.69;;;8.82;100.00
60373;BME280;46216;52.220;5.134;2023-02-19T10:55:32;102621.25;;;8.76;100.00
60373;BME280;46216;52.220;5.134;2023-02-19T10:58:21;102616.81;;;8.76;100.00
60373;BME280;46216;52.220;5.134;2023-02-19T11:01:08;102612.47;;;8.74;100.00
60373;BME280;46216;52.220;5.134;2023-02-19T11:03:34;102612.41;;;8.75;100.00
60373;BME280;46216;52.220;5.134;2023-02-19T11:06:02;102617.78;;;8.74;100.00
60373;BME280;46216;52.220;5.134;2023-02-19T11:08:28;102625.69;;;8.75;100.00
60373;BME280;46216;52.220;5.134;2023-02-19T11:10:54;102628.31;;;8.77;100.00
60373;BME280;46216;52.220;5.134;2023-02-19T11:13:29;102633.75;;;8.74;100.00
60373;BME280;46216;52.220;5.134;2023-02-19T11:15:56;102637.25;;;8.74;100.00
60373;BME280;46216;52.220;5.134;2023-02-19T11:18:27;102639.06;;;8.74;100.00
60373;BME280;46216;52.220;5.134;2023-02-19T11:20:56;102638.41;;;8.67;100.00
60373;BME280;46216;52.220;5.134;2023-02-19T11:23:30;102634.91;;;8.67;100.00
60373;BME280;46216;52.220;5.134;2023-02-19T11:25:59;102644.47;;;8.71;100.00
60373;BME280;46216;52.220;5.134;2023-02-19T11:28:37;102639.28;;;8.68;100.00
60373;BME280;46216;52.220;5.134;2023-02-19T11:33:51;102650.66;;;8.71;100.00
60373;BME280;46216;52.220;5.134;2023-02-19T11:36:28;102659.59;;;8.69;100.00
60373;BME280;46216;52.220;5.134;2023-02-19T11:38:54;102657.06;;;8.66;100.00
60373;BME280;46216;52.220;5.134;2023-02-19T11:41:45;102653.72;;;8.61;100.00
60373;BME280;46216;52.220;5.134;2023-02-19T11:44:24;102654.53;;;8.63;100.00
60373;BME280;46216;52.220;5.134;2023-02-19T11:52:30;102642.53;;;8.51;100.00
60373;BME280;46216;52.220;5.134;2023-02-19T12:00:51;102634.78;;;8.70;100.00
60373;BME280;46216;52.220;5.134;2023-02-19T12:03:47;102643.34;;;8.78;100.00
60373;BME280;46216;52.220;5.134;2023-02-19T12:06:38;102644.91;;;8.84;100.00
60373;BME280;46216;52.220;5.134;2023-02-19T12:12:23;102651.00;;;8.87;100.00
60373;BME280;46216;52.220;5.134;2023-02-19T12:15:09;102658.59;;;8.96;100.00
60373;BME280;46216;52.220;5.134;2023-02-19T12:17:50;102666.09;;;8.87;100.00
60373;BME280;46216;52.220;5.134;2023-02-19T12:28:44;102662.69;;;8.82;100.00
60373;BME280;46216;52.220;5.134;2023-02-19T12:31:39;102660.88;;;8.84;100.00
60373;BME280;46216;52.220;5.134;2023-02-19T12:34:21;102671.22;;;8.91;100.00
60373;BME280;46216;52.220;5.134;2023-02-19T12:39:28;102665.91;;;8.91;100.00
60373;BME280;46216;52.220;5.134;2023-02-19T12:44:45;102672.38;;;8.84;100.00
60373;BME280;46216;52.220;5.134;2023-02-19T12:47:22;102685.78;;;8.81;100.00
60373;BME280;46216;52.220;5.134;2023-02-19T12:50:23;102689.41;;;8.79;100.00
60373;BME280;46216;52.220;5.134;2023-02-19T12:52:54;102690.13;;;8.84;100.00
60373;BME280;46216;52.220;5.134;2023-02-19T12:55:24;102691.91;;;8.83;100.00
60373;BME280;46216;52.220;5.134;2023-02-19T12:57:52;102696.97;;;8.89;100.00
60373;BME280;46216;52.220;5.134;2023-02-19T13:03:28;102700.78;;;8.82;100.00
60373;BME280;46216;52.220;5.134;2023-02-19T13:06:19;102716.75;;;8.82;100.00
60373;BME280;46216;52.220;5.134;2023-02-19T13:11:48;102732.03;;;8.75;100.00
60373;BME280;46216;52.220;5.134;2023-02-19T13:14:37;102730.47;;;8.70;100.00
60373;BME280;46216;52.220;5.134;2023-02-19T13:17:35;102736.69;;;8.69;100.00
60373;BME280;46216;52.220;5.134;2023-02-19T13:20:38;102739.41;;;8.67;100.00
60373;BME280;46216;52.220;5.134;2023-02-19T13:23:32;102733.19;;;8.68;100.00
60373;BME280;46216;52.220;5.134;2023-02-19T13:38:08;102748.97;;;8.73;100.00
60373;BME280;46216;52.220;5.134;2023-02-19T13:40:39;102754.41;;;8.70;100.00
60373;BME280;46216;52.220;5.134;2023-02-19T13:43:34;102750.84;;;8.69;100.00
60373;BME280;46216;52.220;5.134;2023-02-19T13:46:05;102757.06;;;8.70;100.00
60373;BME280;46216;52.220;5.134;2023-02-19T13:48:34;102753.75;;;8.63;100.00
60373;BME280;46216;52.220;5.134;2023-02-19T13:59:25;102768.47;;;8.47;100.00
60373;BME280;46216;52.220;5.134;2023-02-19T14:19:46;102755.19;;;8.45;100.00
60373;BME280;46216;52.220;5.134;2023-02-19T14:25:30;102744.63;;;8.44;100.00
60373;BME280;46216;52.220;5.134;2023-02-19T14:28:05;102730.59;;;8.40;100.00
60373;BME280;46216;52.220;5.134;2023-02-19T14:30:57;102738.63;;;8.37;100.00
60373;BME280;46216;52.220;5.134;2023-02-19T14:33:32;102738.69;;;8.36;100.00
60373;BME280;46216;52.220;5.134;2023-02-19T14:36:13;102732.31;;;8.41;100.00
60373;BME280;46216;52.220;5.134;2023-02-19T14:38:47;102728.78;;;8.41;100.00
60373;BME280;46216;52.220;5.134;2023-02-19T14:41:16;102727.78;;;8.45;100.00
60373;BME280;46216;52.220;5.134;2023-02-19T14:43:43;102718.91;;;8.46;100.00
60373;BME280;46216;52.220;5.134;2023-02-19T14:46:20;102725.34;;;8.37;100.00
60373;BME280;46216;52.220;5.134;2023-02-19T14:48:48;102714.72;;;8.37;100.00
60373;BME280;46216;52.220;5.134;2023-02-19T14:51:22;102718.31;;;8.36;100.00